Time;durP1;ratioP1;P1;durP2;ratioP2;P2;SDS_P1;SDS_P2;PMS_P1;PMS_P2;Temp;Humidity;BMP_temperature;BMP_pressure;BME280_temperature;BME280_humidity;BME280_pressure;Samples;Min_cycle;Max_cycle;Signal;HPM_P1;HPM_P2
2022/07/05 00:01:03;;;;;;;0.40;0.30;;;19.10;99.90;;;;;;5020926;28;20460;-72
2022/07/05 00:03:29;;;;;;;0.40;0.20;;;19.10;99.90;;;;;;5018106;28;20397;-73
2022/07/05 00:05:55;;;;;;;0.70;0.60;;;19.10;99.90;;;;;;5015661;28;20392;-73
2022/07/05 00:08:21;;;;;;;0.50;0.50;;;19.00;99.90;;;;;;5010150;28;20495;-73
2022/07/05 00:10:47;;;;;;;0.40;0.30;;;19.00;99.90;;;;;;5002870;28;20888;-72
2022/07/05 00:13:14;;;;;;;0.40;0.22;;;19.10;99.90;;;;;;5021915;28;20501;-72
2022/07/05 00:15:40;;;;;;;0.40;0.30;;;19.10;99.90;;;;;;5016883;28;20514;-72
2022/07/05 00:18:06;;;;;;;0.40;0.20;;;19.10;99.90;;;;;;5030807;28;20788;-72
2022/07/05 00:20:31;;;;;;;0.40;0.30;;;19.10;99.90;;;;;;5018470;28;20393;-72
2022/07/05 00:22:57;;;;;;;0.40;0.20;;;19.10;99.90;;;;;;5023497;28;20383;-72
2022/07/05 00:25:23;;;;;;;0.40;0.30;;;19.10;99.90;;;;;;5009850;28;20838;-72
2022/07/05 00:27:48;;;;;;;0.40;0.20;;;19.10;99.90;;;;;;5011897;28;20411;-72
2022/07/05 00:30:14;;;;;;;0.40;0.20;;;19.10;99.90;;;;;;5024956;28;20398;-72
2022/07/05 00:32:40;;;;;;;0.40;0.30;;;19.00;99.90;;;;;;5009854;28;20385;-72
2022/07/05 00:35:07;;;;;;;0.40;0.30;;;19.00;99.90;;;;;;5019437;28;20398;-72
2022/07/05 00:37:33;;;;;;;0.40;0.20;;;19.00;99.90;;;;;;5029125;28;20397;-73
2022/07/05 00:39:59;;;;;;;0.40;0.20;;;18.90;99.90;;;;;;5017646;28;20870;-72
2022/07/05 00:42:25;;;;;;;0.40;0.28;;;19.10;99.90;;;;;;5026052;28;20474;-73
2022/07/05 00:44:51;;;;;;;0.40;0.30;;;18.90;99.90;;;;;;5011719;28;20492;-72
2022/07/05 00:47:16;;;;;;;0.40;0.30;;;18.90;99.90;;;;;;5020080;28;20435;-72
2022/07/05 00:49:42;;;;;;;0.80;0.80;;;19.00;99.90;;;;;;5010157;28;20388;-72
2022/07/05 00:52:09;;;;;;;0.40;0.20;;;18.90;99.90;;;;;;5016350;28;20395;-72
2022/07/05 00:54:37;;;;;;;0.90;0.50;;;18.90;99.90;;;;;;5019110;28;21022;-72
2022/07/05 00:57:04;;;;;;;0.40;0.30;;;18.90;99.90;;;;;;5029058;28;20427;-72
2022/07/05 00:59:30;;;;;;;0.40;0.30;;;18.90;99.90;;;;;;5029057;28;20406;-73
2022/07/05 01:01:57;;;;;;;0.40;0.20;;;18.80;99.90;;;;;;5027623;28;20399;-73
2022/07/05 01:04:23;;;;;;;0.40;0.30;;;18.90;99.90;;;;;;5024247;28;20472;-73
2022/07/05 01:06:51;;;;;;;0.40;0.20;;;18.80;99.90;;;;;;5010951;28;20400;-74
2022/07/05 01:09:19;;;;;;;0.40;0.30;;;18.80;99.90;;;;;;5015954;28;20452;-73
2022/07/05 01:11:46;;;;;;;0.40;0.20;;;18.80;99.90;;;;;;5029124;28;20485;-73
2022/07/05 01:14:16;;;;;;;0.40;0.20;;;18.70;99.90;;;;;;5027666;28;20402;-72
2022/07/05 01:16:42;;;;;;;0.40;0.20;;;18.70;99.90;;;;;;5016785;28;20517;-72
2022/07/05 01:19:11;;;;;;;0.40;0.20;;;18.70;99.90;;;;;;5025290;28;20495;-72
2022/07/05 01:21:40;;;;;;;0.40;0.30;;;18.70;99.90;;;;;;5027980;28;20415;-73
2022/07/05 01:24:07;;;;;;;0.65;0.65;;;18.70;99.90;;;;;;5016744;28;20918;-73
2022/07/05 01:26:34;;;;;;;0.40;0.30;;;18.60;99.90;;;;;;5029244;28;20413;-72
2022/07/05 01:28:59;;;;;;;0.40;0.20;;;18.70;99.90;;;;;;5025309;28;20400;-72
2022/07/05 01:31:25;;;;;;;0.40;0.20;;;18.70;99.90;;;;;;5024359;28;20458;-72
2022/07/05 01:33:51;;;;;;;0.40;0.30;;;18.60;99.90;;;;;;5029741;28;20424;-72
2022/07/05 01:36:17;;;;;;;0.40;0.20;;;18.70;99.90;;;;;;5021377;28;20821;-73
2022/07/05 01:38:43;;;;;;;0.40;0.30;;;18.60;99.90;;;;;;5031801;28;20399;-72
2022/07/05 01:41:09;;;;;;;0.40;0.20;;;18.50;99.90;;;;;;5028661;28;20482;-72
2022/07/05 01:43:35;;;;;;;0.40;0.30;;;18.40;99.90;;;;;;5031706;28;20380;-72
2022/07/05 01:46:03;;;;;;;0.40;0.20;;;18.50;99.90;;;;;;5027308;28;20456;-72
2022/07/05 01:48:32;;;;;;;0.40;0.20;;;18.40;99.90;;;;;;5020144;28;20477;-72
2022/07/05 01:51:04;;;;;;;0.40;0.30;;;18.50;99.90;;;;;;5032589;28;20395;-73
2022/07/05 01:53:31;;;;;;;0.40;0.20;;;18.30;99.90;;;;;;5026974;28;20402;-72
2022/07/05 01:56:02;;;;;;;0.40;0.30;;;18.30;99.90;;;;;;5025772;28;20422;-72
2022/07/05 01:58:29;;;;;;;0.40;0.20;;;18.20;99.90;;;;;;5031661;28;20427;-72
2022/07/05 02:00:56;;;;;;;0.40;0.20;;;18.20;99.90;;;;;;5031293;28;20399;-74
2022/07/05 02:03:22;;;;;;;0.40;0.32;;;18.10;99.90;;;;;;5032140;28;20431;-72
2022/07/05 02:05:49;;;;;;;0.40;0.20;;;18.00;99.90;;;;;;5023022;28;20457;-73
2022/07/05 02:08:16;;;;;;;0.40;0.20;;;17.90;99.90;;;;;;5021235;28;20754;-73
2022/07/05 02:10:43;;;;;;;0.40;0.20;;;17.80;99.90;;;;;;5019358;28;20448;-72
2022/07/05 02:13:09;;;;;;;0.68;0.68;;;17.90;99.90;;;;;;5022830;28;20396;-73
2022/07/05 02:15:37;;;;;;;0.40;0.30;;;17.70;99.90;;;;;;5030086;28;20419;-72
2022/07/05 02:18:04;;;;;;;0.40;0.20;;;17.60;99.90;;;;;;5012927;28;20409;-72
2022/07/05 02:20:31;;;;;;;0.40;0.30;;;17.60;99.90;;;;;;5012190;28;20412;-73
2022/07/05 02:22:57;;;;;;;0.40;0.20;;;17.60;99.90;;;;;;5012635;28;20396;-72
2022/07/05 02:25:23;;;;;;;0.40;0.30;;;17.50;99.90;;;;;;5013835;28;20400;-73
2022/07/05 02:27:49;;;;;;;0.40;0.20;;;17.50;99.90;;;;;;5030908;28;20450;-72
2022/07/05 02:30:15;;;;;;;0.40;0.30;;;17.60;99.90;;;;;;5014082;28;20408;-72
2022/07/05 02:32:42;;;;;;;0.40;0.20;;;17.50;99.90;;;;;;5016629;28;20408;-72
2022/07/05 02:35:09;;;;;;;0.50;0.40;;;17.50;99.90;;;;;;5020888;28;20381;-72
2022/07/05 02:37:36;;;;;;;0.40;0.30;;;17.60;99.90;;;;;;5019213;28;20442;-72
2022/07/05 02:40:02;;;;;;;0.70;0.50;;;17.50;99.90;;;;;;5020945;28;20381;-73
2022/07/05 02:42:28;;;;;;;0.40;0.30;;;17.40;99.90;;;;;;5012080;28;20424;-73
2022/07/05 02:44:53;;;;;;;0.40;0.30;;;17.30;99.90;;;;;;5026751;28;20488;-73
2022/07/05 02:47:19;;;;;;;0.43;0.40;;;17.20;99.90;;;;;;5031615;28;20449;-72
2022/07/05 02:49:45;;;;;;;0.40;0.20;;;17.20;99.90;;;;;;5018102;28;20398;-73
2022/07/05 02:52:10;;;;;;;0.40;0.30;;;17.20;99.90;;;;;;5008012;28;20434;-72
2022/07/05 02:54:36;;;;;;;2.70;0.90;;;17.20;99.90;;;;;;5011288;28;20466;-73
2022/07/05 02:57:02;;;;;;;0.47;0.38;;;17.00;99.90;;;;;;5011468;28;20897;-72
2022/07/05 02:59:29;;;;;;;0.40;0.30;;;17.00;99.90;;;;;;5011291;28;20848;-72
2022/07/05 03:01:55;;;;;;;0.40;0.30;;;17.10;99.90;;;;;;5012080;28;20397;-73
2022/07/05 03:04:21;;;;;;;0.40;0.20;;;17.00;99.90;;;;;;5012137;28;20400;-73
2022/07/05 03:06:46;;;;;;;0.70;0.70;;;16.90;99.90;;;;;;5011009;28;20384;-72
2022/07/05 03:09:12;;;;;;;0.40;0.20;;;16.90;99.90;;;;;;5013872;28;20388;-72
2022/07/05 03:11:38;;;;;;;0.40;0.20;;;16.90;99.90;;;;;;5011266;28;20380;-72
2022/07/05 03:14:03;;;;;;;0.40;0.20;;;17.00;99.90;;;;;;5014948;28;20393;-72
2022/07/05 03:16:29;;;;;;;0.40;0.20;;;16.90;99.90;;;;;;5014761;28;20876;-73
2022/07/05 03:18:55;;;;;;;0.40;0.30;;;17.00;99.90;;;;;;5027708;28;20457;-73
2022/07/05 03:21:21;;;;;;;0.40;0.30;;;16.90;99.90;;;;;;5031674;28;20792;-72
2022/07/05 03:23:47;;;;;;;0.40;0.20;;;16.90;99.90;;;;;;5030473;28;20395;-73
2022/07/05 03:26:12;;;;;;;0.40;0.20;;;17.00;99.90;;;;;;5029714;28;20398;-72
2022/07/05 03:28:38;;;;;;;0.40;0.20;;;17.10;99.90;;;;;;5018817;28;20394;-72
2022/07/05 03:31:04;;;;;;;0.40;0.30;;;17.10;99.90;;;;;;5027666;28;20427;-73
2022/07/05 03:33:29;;;;;;;0.40;0.20;;;17.00;99.90;;;;;;5029516;28;20860;-73
2022/07/05 03:35:55;;;;;;;0.40;0.20;;;16.90;99.90;;;;;;5031296;28;20798;-73
2022/07/05 03:38:21;;;;;;;0.40;0.30;;;16.90;99.90;;;;;;5024375;28;20405;-73
2022/07/05 03:40:46;;;;;;;0.40;0.20;;;16.80;99.90;;;;;;5010094;28;21066;-73
2022/07/05 03:43:12;;;;;;;0.40;0.20;;;16.90;99.90;;;;;;5011440;28;20907;-73
2022/07/05 03:45:37;;;;;;;0.40;0.30;;;16.80;99.90;;;;;;5015171;28;20400;-72
2022/07/05 03:48:03;;;;;;;0.40;0.30;;;16.90;99.90;;;;;;5021162;28;20391;-72
2022/07/05 03:50:29;;;;;;;0.40;0.20;;;17.00;99.90;;;;;;5030028;28;20399;-72
2022/07/05 03:52:55;;;;;;;0.40;0.40;;;17.10;99.90;;;;;;5020721;28;20384;-72
2022/07/05 03:55:20;;;;;;;0.40;0.30;;;17.10;99.90;;;;;;5029365;28;20395;-72
2022/07/05 03:57:47;;;;;;;0.40;0.30;;;17.10;99.90;;;;;;5028476;28;21320;-73
2022/07/05 04:00:13;;;;;;;0.40;0.30;;;17.10;99.90;;;;;;5027649;28;20790;-73
2022/07/05 04:02:39;;;;;;;0.40;0.20;;;17.00;99.90;;;;;;5016581;28;20393;-73
2022/07/05 04:05:05;;;;;;;0.40;0.20;;;16.90;99.90;;;;;;5010972;28;20458;-72
2022/07/05 04:07:31;;;;;;;0.40;0.20;;;17.10;99.90;;;;;;5012602;28;20405;-73
2022/07/05 04:09:57;;;;;;;0.50;0.50;;;17.00;99.90;;;;;;5029037;28;20733;-73
2022/07/05 04:12:23;;;;;;;0.40;0.30;;;17.10;99.90;;;;;;5001876;28;20926;-72
2022/07/05 04:14:49;;;;;;;0.40;0.30;;;17.10;99.90;;;;;;5017721;28;20419;-73
2022/07/05 04:17:14;;;;;;;0.40;0.30;;;17.10;99.90;;;;;;5018391;28;20416;-73
2022/07/05 04:19:40;;;;;;;0.40;0.20;;;17.00;99.90;;;;;;5016109;28;20903;-73
2022/07/05 04:22:06;;;;;;;0.40;0.40;;;16.90;99.90;;;;;;5021511;28;20469;-73
2022/07/05 04:25:16;;;;;;;0.40;0.20;;;16.90;99.90;;;;;;5020448;28;20397;-72
2022/07/05 04:27:17;;;;;;;0.40;0.20;;;17.00;99.90;;;;;;5019929;28;20428;-73
2022/07/05 04:29:43;;;;;;;0.40;0.28;;;16.90;99.90;;;;;;5002013;28;20433;-73
2022/07/05 04:32:08;;;;;;;0.40;0.23;;;17.00;99.90;;;;;;5022694;28;20387;-73
2022/07/05 04:34:34;;;;;;;0.40;0.20;;;17.00;99.90;;;;;;5015359;28;20396;-73
2022/07/05 04:37:00;;;;;;;0.60;0.60;;;17.00;99.90;;;;;;5021135;28;20418;-73
2022/07/05 04:39:25;;;;;;;0.40;0.30;;;16.90;99.90;;;;;;5016961;28;20392;-73
2022/07/05 04:41:51;;;;;;;0.40;0.30;;;16.90;99.90;;;;;;5009991;28;20971;-73
2022/07/05 04:44:16;;;;;;;0.40;0.20;;;16.90;99.90;;;;;;5028820;28;20402;-73
2022/07/05 04:46:42;;;;;;;0.40;0.30;;;16.90;99.90;;;;;;5029515;28;20436;-73
2022/07/05 04:49:08;;;;;;;0.50;0.40;;;16.80;99.90;;;;;;5026179;28;20537;-73
2022/07/05 04:51:33;;;;;;;0.40;0.30;;;16.90;99.90;;;;;;5031918;28;20388;-74
2022/07/05 04:53:59;;;;;;;0.40;0.30;;;16.90;99.90;;;;;;5030983;28;20410;-73
2022/07/05 04:56:25;;;;;;;0.40;0.30;;;16.80;99.90;;;;;;5030120;28;20445;-73
2022/07/05 04:58:50;;;;;;;0.90;0.70;;;16.90;99.90;;;;;;5012583;28;20402;-72
2022/07/05 05:01:16;;;;;;;0.40;0.20;;;16.90;99.90;;;;;;5034140;28;20707;-72
2022/07/05 05:03:42;;;;;;;0.40;0.30;;;16.80;99.90;;;;;;5015870;28;20868;-72
2022/07/05 05:06:07;;;;;;;0.40;0.20;;;16.90;99.90;;;;;;5034119;28;20386;-74
2022/07/05 05:08:33;;;;;;;0.50;0.40;;;16.80;99.90;;;;;;5032535;28;20391;-72
2022/07/05 05:10:58;;;;;;;1.10;0.60;;;17.00;99.90;;;;;;5030795;28;20768;-71
2022/07/05 05:13:24;;;;;;;0.40;0.20;;;17.00;99.90;;;;;;5022917;28;20463;-72
2022/07/05 05:15:50;;;;;;;0.50;0.50;;;17.10;99.90;;;;;;5031538;28;20410;-72
2022/07/05 05:18:18;;;;;;;0.50;0.50;;;17.10;99.90;;;;;;5013904;28;20869;-72
2022/07/05 05:20:44;;;;;;;0.40;0.30;;;17.10;99.90;;;;;;5013586;28;20761;-72
2022/07/05 05:23:09;;;;;;;0.50;0.40;;;17.10;99.90;;;;;;5017177;28;20393;-72
2022/07/05 05:25:36;;;;;;;0.40;0.30;;;17.30;99.90;;;;;;5013101;28;20396;-73
2022/07/05 05:28:02;;;;;;;0.40;0.20;;;17.30;99.90;;;;;;5031892;28;20405;-73
2022/07/05 05:30:27;;;;;;;0.40;0.20;;;17.20;99.90;;;;;;5031502;28;20395;-72
2022/07/05 05:32:53;;;;;;;0.40;0.23;;;17.20;99.90;;;;;;5021564;28;20463;-72
2022/07/05 05:35:21;;;;;;;0.40;0.30;;;17.40;99.90;;;;;;5020706;28;20808;-72
2022/07/05 05:37:47;;;;;;;0.40;0.20;;;17.50;99.90;;;;;;5015263;28;20387;-73
2022/07/05 05:40:13;;;;;;;0.40;0.20;;;17.50;99.90;;;;;;5025090;28;20435;-72
2022/07/05 05:42:39;;;;;;;0.40;0.30;;;17.50;99.90;;;;;;5022889;28;20443;-73
2022/07/05 05:45:05;;;;;;;0.40;0.30;;;17.60;99.90;;;;;;5022161;28;20442;-73
2022/07/05 05:47:31;;;;;;;0.70;0.70;;;17.70;99.90;;;;;;5021492;28;20460;-73
2022/07/05 05:49:56;;;;;;;0.40;0.30;;;17.80;99.90;;;;;;5025582;28;20871;-73
2022/07/05 05:52:22;;;;;;;0.40;0.20;;;17.90;99.90;;;;;;5026834;28;20403;-73
2022/07/05 05:54:47;;;;;;;0.40;0.20;;;17.90;99.90;;;;;;5014501;28;20411;-73
2022/07/05 05:57:13;;;;;;;0.40;0.20;;;18.00;99.90;;;;;;5017973;28;20421;-72
2022/07/05 05:59:39;;;;;;;0.40;0.30;;;18.00;99.90;;;;;;5018820;28;20753;-73
2022/07/05 06:02:04;;;;;;;0.40;0.40;;;18.00;99.90;;;;;;5018332;28;21284;-73
2022/07/05 06:04:30;;;;;;;0.40;0.30;;;18.10;99.90;;;;;;5019247;28;22092;-73
2022/07/05 06:06:56;;;;;;;0.40;0.22;;;18.10;99.90;;;;;;5017565;28;20399;-72
2022/07/05 06:09:21;;;;;;;0.40;0.30;;;18.10;99.90;;;;;;5019023;28;20875;-73
2022/07/05 06:11:47;;;;;;;0.40;0.20;;;18.20;99.90;;;;;;5016301;28;20405;-73
2022/07/05 06:14:13;;;;;;;0.60;0.60;;;18.40;99.90;;;;;;5020294;28;20483;-72
2022/07/05 06:16:38;;;;;;;0.50;0.40;;;18.40;99.90;;;;;;5014543;28;20422;-73
2022/07/05 06:19:04;;;;;;;0.40;0.30;;;18.40;99.90;;;;;;5018493;28;20749;-73
2022/07/05 06:21:29;;;;;;;0.40;0.30;;;18.50;99.90;;;;;;5020297;28;20380;-73
2022/07/05 06:23:55;;;;;;;0.70;0.70;;;18.50;99.90;;;;;;5016324;28;21011;-73
2022/07/05 06:26:21;;;;;;;0.40;0.30;;;18.50;99.90;;;;;;5015331;28;20404;-73
2022/07/05 06:28:46;;;;;;;0.40;0.20;;;18.60;99.90;;;;;;5017877;28;20785;-73
2022/07/05 06:31:12;;;;;;;0.40;0.20;;;18.70;99.90;;;;;;5018828;28;20387;-73
2022/07/05 06:33:38;;;;;;;0.50;0.40;;;18.80;99.90;;;;;;5014749;28;20392;-73
2022/07/05 06:36:04;;;;;;;0.70;0.30;;;18.80;99.90;;;;;;5013595;28;20528;-73
2022/07/05 06:38:29;;;;;;;0.40;0.30;;;18.80;99.90;;;;;;5019674;28;20400;-72
2022/07/05 06:40:56;;;;;;;0.40;0.30;;;18.80;99.90;;;;;;5016086;28;21097;-73
2022/07/05 06:43:22;;;;;;;1.60;0.90;;;18.90;99.90;;;;;;5015134;28;20447;-72
2022/07/05 06:45:48;;;;;;;0.47;0.47;;;18.90;99.90;;;;;;4997977;28;20430;-73
2022/07/05 06:48:14;;;;;;;0.40;0.25;;;19.10;99.90;;;;;;5015544;28;20397;-73
2022/07/05 06:50:42;;;;;;;0.40;0.20;;;19.30;99.90;;;;;;5016936;28;20420;-73
2022/07/05 06:53:09;;;;;;;0.40;0.30;;;19.40;99.90;;;;;;5017950;28;20504;-73
2022/07/05 06:55:34;;;;;;;0.40;0.20;;;19.50;99.90;;;;;;5016005;28;20427;-73
2022/07/05 06:58:09;;;;;;;0.40;0.30;;;19.70;99.90;;;;;;5015797;28;20921;-73
2022/07/05 07:00:35;;;;;;;0.40;0.20;;;19.80;99.90;;;;;;5015703;28;20466;-73
2022/07/05 07:03:01;;;;;;;0.40;0.30;;;19.80;99.90;;;;;;5013415;28;20385;-73
2022/07/05 07:05:27;;;;;;;0.40;0.28;;;20.00;97.30;;;;;;5015318;28;20395;-73
2022/07/05 07:10:38;;;;;;;0.40;0.20;;;20.10;99.90;;;;;;5021798;28;20425;-73
2022/07/05 07:13:04;;;;;;;0.50;0.50;;;20.00;99.90;;;;;;5020295;28;20391;-73
2022/07/05 07:15:30;;;;;;;0.40;0.20;;;20.10;99.90;;;;;;5022298;28;20437;-73
2022/07/05 07:17:56;;;;;;;0.40;0.30;;;20.20;99.90;;;;;;5021991;28;20857;-75
2022/07/05 07:20:22;;;;;;;0.40;0.30;;;20.30;99.90;;;;;;5020278;28;20431;-75
2022/07/05 07:22:48;;;;;;;0.40;0.30;;;20.50;99.90;;;;;;5020439;28;20398;-73
2022/07/05 07:25:13;;;;;;;0.40;0.20;;;20.60;99.90;;;;;;5021284;28;20860;-74
2022/07/05 07:27:55;;;;;;;0.40;0.22;;;20.50;99.90;;;;;;5019818;28;20447;-75
2022/07/05 07:30:26;;;;;;;0.40;0.20;;;20.60;99.90;;;;;;5021920;28;20375;-74
2022/07/05 07:32:52;;;;;;;0.40;0.30;;;20.60;98.60;;;;;;5021196;28;20469;-73
2022/07/05 07:35:18;;;;;;;0.40;0.30;;;20.80;98.60;;;;;;5022139;28;20740;-74
2022/07/05 07:37:44;;;;;;;0.40;0.30;;;20.80;98.60;;;;;;5018370;28;20425;-71
2022/07/05 07:40:11;;;;;;;0.40;0.30;;;20.90;97.80;;;;;;5018049;28;20385;-72
2022/07/05 07:42:36;;;;;;;0.40;0.20;;;21.10;96.30;;;;;;5019080;28;20865;-72
2022/07/05 07:45:03;;;;;;;0.40;0.20;;;21.00;96.80;;;;;;4999419;28;20440;-74
2022/07/05 07:47:33;;;;;;;0.40;0.20;;;21.10;96.00;;;;;;5015864;28;20384;-73
2022/07/05 07:49:59;;;;;;;0.63;0.63;;;21.20;94.80;;;;;;5014603;28;20907;-72
2022/07/05 07:52:25;;;;;;;0.40;0.20;;;21.30;95.00;;;;;;5019896;28;20397;-72
2022/07/05 07:54:51;;;;;;;0.40;0.30;;;21.20;94.90;;;;;;5011711;28;20507;-72
2022/07/05 07:57:17;;;;;;;0.40;0.30;;;21.40;93.40;;;;;;5018988;28;20434;-73
2022/07/05 07:59:42;;;;;;;0.40;0.20;;;21.50;92.90;;;;;;5022228;28;20398;-73
2022/07/05 08:02:08;;;;;;;0.40;0.25;;;21.40;92.20;;;;;;5017045;28;20391;-74
2022/07/05 08:04:34;;;;;;;0.40;0.20;;;21.40;91.60;;;;;;5016913;28;20407;-72
2022/07/05 08:07:00;;;;;;;0.60;0.60;;;21.30;92.70;;;;;;5016112;28;20397;-72
2022/07/05 08:09:26;;;;;;;0.40;0.20;;;21.40;92.40;;;;;;5020247;28;20412;-72
2022/07/05 08:11:51;;;;;;;0.40;0.30;;;21.30;93.70;;;;;;5020744;28;20387;-71
2022/07/05 08:14:18;;;;;;;0.40;0.30;;;21.50;93.90;;;;;;5013797;28;20874;-72
2022/07/05 08:16:46;;;;;;;0.40;0.30;;;21.50;93.10;;;;;;5016992;28;20552;-72
2022/07/05 08:21:56;;;;;;;0.40;0.30;;;21.60;92.70;;;;;;5012715;28;20400;-72
2022/07/05 08:24:22;;;;;;;0.40;0.20;;;21.80;90.80;;;;;;5012562;28;20736;-72
2022/07/05 08:26:48;;;;;;;0.40;0.30;;;21.90;91.50;;;;;;5014954;28;20401;-71
2022/07/05 08:29:14;;;;;;;0.40;0.40;;;21.80;90.80;;;;;;5020256;28;20438;-73
2022/07/05 08:31:47;;;;;;;0.60;0.60;;;21.80;91.30;;;;;;5015209;28;20422;-71
2022/07/05 08:34:13;;;;;;;0.40;0.20;;;21.80;91.20;;;;;;5016237;28;20408;-71
2022/07/05 08:36:42;;;;;;;0.40;0.20;;;21.90;91.60;;;;;;5016061;28;20408;-71
2022/07/05 08:39:08;;;;;;;0.40;0.20;;;22.00;91.90;;;;;;5018069;28;20400;-71
2022/07/05 08:41:38;;;;;;;0.40;0.30;;;22.00;91.20;;;;;;5018990;28;20385;-72
2022/07/05 08:44:04;;;;;;;0.40;0.20;;;22.10;90.40;;;;;;5020235;28;20396;-73
2022/07/05 08:46:31;;;;;;;0.40;0.30;;;22.00;89.50;;;;;;5016363;28;20464;-72
2022/07/05 08:49:00;;;;;;;1.00;0.60;;;22.10;89.10;;;;;;5017732;28;20381;-72
2022/07/05 08:51:28;;;;;;;0.40;0.30;;;22.20;89.30;;;;;;5017810;28;20539;-71
2022/07/05 08:53:55;;;;;;;0.40;0.20;;;22.00;90.70;;;;;;5022326;28;20422;-71
2022/07/05 08:56:22;;;;;;;0.40;0.20;;;22.00;90.90;;;;;;5021054;28;20432;-71
2022/07/05 08:58:49;;;;;;;0.40;0.30;;;22.00;91.90;;;;;;5018159;28;20427;-72
2022/07/05 09:01:15;;;;;;;0.40;0.20;;;21.90;90.90;;;;;;5022038;28;20396;-70
2022/07/05 09:03:48;;;;;;;0.40;0.30;;;22.10;91.00;;;;;;5018148;28;20396;-72
2022/07/05 09:06:18;;;;;;;0.40;0.20;;;22.20;89.80;;;;;;5019560;28;20384;-71
2022/07/05 09:08:45;;;;;;;0.40;0.20;;;22.10;90.50;;;;;;5017237;28;20745;-71
2022/07/05 09:11:13;;;;;;;0.40;0.30;;;22.10;90.10;;;;;;5019902;28;20711;-72
2022/07/05 09:13:41;;;;;;;0.40;0.30;;;22.20;88.80;;;;;;5013306;28;20434;-71
2022/07/05 09:16:07;;;;;;;0.40;0.20;;;22.20;90.00;;;;;;5013905;28;20413;-71
2022/07/05 09:18:40;;;;;;;0.40;0.20;;;22.30;87.90;;;;;;5012956;28;20389;-71
2022/07/05 09:21:32;;;;;;;0.40;0.20;;;22.40;89.50;;;;;;5012299;28;20402;-71
2022/07/05 09:24:06;;;;;;;0.40;0.30;;;22.50;88.30;;;;;;5017271;28;20414;-71
2022/07/05 09:26:36;;;;;;;0.60;0.50;;;22.60;89.40;;;;;;5021309;28;21050;-71
2022/07/05 09:29:04;;;;;;;0.40;0.30;;;22.50;88.80;;;;;;5020451;28;21007;-72
2022/07/05 09:31:38;;;;;;;0.40;0.20;;;22.50;87.60;;;;;;5022401;28;20423;-72
2022/07/05 09:34:14;;;;;;;0.50;0.50;;;22.40;87.10;;;;;;5018496;28;20466;-72
2022/07/05 09:36:48;;;;;;;0.90;0.90;;;22.60;85.40;;;;;;5020577;28;20444;-72
2022/07/05 09:39:14;;;;;;;0.40;0.30;;;22.60;86.80;;;;;;5021374;28;20405;-71
2022/07/05 09:41:40;;;;;;;0.40;0.20;;;22.60;85.60;;;;;;5022119;28;20396;-72
2022/07/05 09:44:05;;;;;;;0.60;0.40;;;22.60;84.50;;;;;;5020000;28;20395;-71
2022/07/05 09:46:32;;;;;;;0.40;0.20;;;22.70;84.70;;;;;;5019364;28;20905;-72
2022/07/05 09:48:58;;;;;;;0.40;0.30;;;22.70;86.30;;;;;;5004259;28;21043;-73
2022/07/05 09:51:24;;;;;;;0.40;0.20;;;22.90;85.00;;;;;;5020416;28;20387;-72
2022/07/05 09:53:53;;;;;;;0.40;0.20;;;23.00;85.30;;;;;;5014413;28;20418;-70
2022/07/05 09:56:20;;;;;;;0.40;0.20;;;23.10;86.50;;;;;;5020411;28;20488;-72
2022/07/05 09:58:46;;;;;;;0.40;0.20;;;23.20;87.20;;;;;;5021038;28;20423;-73
2022/07/05 10:01:30;;;;;;;0.40;0.30;;;23.20;84.20;;;;;;5017287;28;20411;-71
2022/07/05 10:04:05;;;;;;;0.40;0.20;;;23.30;85.20;;;;;;5019620;28;20824;-71
2022/07/05 10:06:33;;;;;;;0.40;0.30;;;23.20;87.50;;;;;;5014129;28;20443;-71
2022/07/05 10:08:59;;;;;;;0.40;0.30;;;23.20;85.70;;;;;;5019620;28;20397;-73
2022/07/05 10:11:26;;;;;;;0.40;0.30;;;23.50;82.50;;;;;;5021178;28;20461;-72
2022/07/05 10:13:54;;;;;;;0.50;0.50;;;23.50;82.10;;;;;;5018110;28;20401;-72
2022/07/05 10:16:22;;;;;;;0.40;0.30;;;23.40;82.90;;;;;;5019503;28;20471;-71
2022/07/05 10:18:54;;;;;;;0.40;0.40;;;23.50;83.10;;;;;;5020153;28;20414;-71
2022/07/05 10:21:21;;;;;;;0.40;0.20;;;23.50;82.00;;;;;;5020525;28;20393;-71
2022/07/05 10:23:53;;;;;;;0.40;0.30;;;23.70;82.60;;;;;;5016993;28;20428;-72
2022/07/05 10:26:19;;;;;;;0.40;0.30;;;23.70;80.00;;;;;;5013864;28;20417;-71
2022/07/05 10:28:48;;;;;;;0.40;0.20;;;23.90;78.80;;;;;;5018400;28;20486;-72
2022/07/05 10:31:15;;;;;;;0.60;0.50;;;23.80;78.30;;;;;;5015220;28;20388;-70
2022/07/05 10:33:41;;;;;;;0.40;0.20;;;23.90;78.50;;;;;;4999207;28;20410;-71
2022/07/05 10:36:10;;;;;;;0.40;0.20;;;23.80;79.70;;;;;;5021864;28;20408;-71
2022/07/05 10:38:38;;;;;;;0.40;0.30;;;23.90;78.20;;;;;;5016698;28;20850;-69
2022/07/05 10:41:08;;;;;;;0.40;0.20;;;24.00;77.70;;;;;;5018958;28;20444;-69
2022/07/05 10:43:33;;;;;;;0.40;0.25;;;24.10;76.90;;;;;;5014959;28;20381;-68
2022/07/05 10:46:00;;;;;;;0.40;0.30;;;24.00;76.50;;;;;;5016707;28;20403;-71
2022/07/05 10:48:27;;;;;;;0.40;0.20;;;24.00;78.90;;;;;;5018510;28;20713;-70
2022/07/05 10:51:08;;;;;;;0.40;0.20;;;24.10;80.40;;;;;;5017538;28;20490;-71
2022/07/05 10:53:36;;;;;;;0.40;0.30;;;24.10;76.80;;;;;;5013867;28;20398;-69
2022/07/05 10:56:05;;;;;;;0.40;0.20;;;24.40;76.10;;;;;;5013499;28;20769;-69
2022/07/05 10:58:36;;;;;;;0.40;0.20;;;24.40;74.00;;;;;;5017776;28;20399;-71
2022/07/05 11:01:20;;;;;;;0.40;0.20;;;24.50;71.30;;;;;;5016791;28;20457;-71
2022/07/05 11:03:55;;;;;;;0.80;0.80;;;24.60;68.20;;;;;;5018592;28;20393;-71
2022/07/05 11:06:25;;;;;;;0.40;0.30;;;24.50;72.50;;;;;;5015619;28;20457;-69
2022/07/05 11:09:00;;;;;;;0.40;0.30;;;24.50;72.90;;;;;;5017846;28;20381;-73
2022/07/05 11:11:33;;;;;;;0.90;0.90;;;24.40;73.10;;;;;;5019149;28;20450;-71
2022/07/05 11:14:01;;;;;;;0.40;0.30;;;24.50;75.00;;;;;;5016617;28;20382;-70
2022/07/05 11:16:35;;;;;;;0.40;0.20;;;24.80;71.50;;;;;;5018395;28;20497;-73
2022/07/05 11:19:20;;;;;;;0.40;0.20;;;24.90;69.40;;;;;;5017783;28;20409;-73
2022/07/05 11:22:05;;;;;;;0.40;0.20;;;25.00;69.30;;;;;;5017394;28;20401;-72
2022/07/05 11:24:36;;;;;;;0.40;0.20;;;25.20;68.70;;;;;;5016830;28;20405;-72
2022/07/05 11:27:03;;;;;;;0.40;0.30;;;25.50;67.10;;;;;;5016457;28;20507;-71
2022/07/05 11:29:48;;;;;;;0.40;0.30;;;25.50;68.30;;;;;;5015442;28;20902;-72
2022/07/05 11:32:35;;;;;;;0.40;0.30;;;25.20;66.90;;;;;;5012519;28;20399;-70
2022/07/05 11:35:18;;;;;;;0.40;0.30;;;25.00;67.70;;;;;;5016767;28;20903;-70
2022/07/05 11:38:05;;;;;;;0.40;0.20;;;25.50;70.40;;;;;;5014560;28;20773;-69
2022/07/05 11:40:37;;;;;;;0.40;0.20;;;26.10;67.80;;;;;;5017263;28;20409;-70
2022/07/05 11:43:03;;;;;;;0.40;0.30;;;26.20;65.20;;;;;;5017183;28;20387;-70
2022/07/05 11:45:31;;;;;;;0.40;0.20;;;26.50;58.10;;;;;;5016707;28;20904;-69
2022/07/05 11:47:57;;;;;;;0.40;0.30;;;27.20;57.20;;;;;;5017588;28;20393;-71
2022/07/05 11:50:30;;;;;;;0.40;0.20;;;27.60;56.50;;;;;;5013657;28;20510;-70
2022/07/05 11:52:57;;;;;;;0.40;0.20;;;28.60;55.40;;;;;;5016781;28;20885;-71
2022/07/05 11:55:26;;;;;;;0.40;0.30;;;29.40;53.40;;;;;;5014830;28;20424;-71
2022/07/05 11:57:53;;;;;;;0.40;0.20;;;29.10;52.00;;;;;;5014685;28;20468;-71
2022/07/05 12:00:35;;;;;;;1.25;1.15;;;28.40;53.80;;;;;;5015161;28;20400;-69
2022/07/05 12:03:10;;;;;;;4.60;0.90;;;28.60;56.50;;;;;;5015526;28;20486;-69
2022/07/05 12:05:36;;;;;;;0.40;0.20;;;28.90;54.80;;;;;;5015305;28;20522;-69
2022/07/05 12:08:01;;;;;;;0.40;0.20;;;29.90;52.20;;;;;;5017273;28;20401;-71
2022/07/05 12:13:11;;;;;;;0.40;0.20;;;29.80;52.20;;;;;;5013869;28;20469;-70
2022/07/05 12:15:38;;;;;;;0.40;0.20;;;30.10;51.90;;;;;;5023810;28;20848;-71
2022/07/05 12:18:05;;;;;;;0.40;0.20;;;28.70;52.10;;;;;;5017071;28;20383;-70
2022/07/05 12:20:36;;;;;;;0.40;0.20;;;30.20;49.50;;;;;;5014839;28;20845;-71
2022/07/05 12:23:02;;;;;;;0.40;0.20;;;29.90;51.30;;;;;;5012513;28;20490;-70
2022/07/05 12:25:29;;;;;;;0.40;0.20;;;29.00;50.30;;;;;;5012433;28;20416;-71
2022/07/05 12:27:57;;;;;;;0.40;0.20;;;30.30;50.00;;;;;;5008541;28;20420;-70
2022/07/05 12:30:23;;;;;;;0.40;0.30;;;31.30;50.30;;;;;;5015903;28;20562;-71
2022/07/05 12:32:59;;;;;;;0.40;0.20;;;31.80;48.90;;;;;;5008154;28;20395;-70
2022/07/05 12:35:40;;;;;;;0.40;0.30;;;30.40;47.00;;;;;;5008652;28;20584;-70
2022/07/05 12:38:18;;;;;;;0.40;0.20;;;31.20;47.70;;;;;;5009537;28;20412;-70
2022/07/05 12:41:02;;;;;;;0.40;0.20;;;28.50;50.40;;;;;;5011963;28;20471;-71
2022/07/05 12:43:27;;;;;;;0.40;0.20;;;28.80;49.70;;;;;;5009951;28;20400;-70
2022/07/05 12:46:00;;;;;;;0.40;0.20;;;29.80;48.90;;;;;;5011999;28;20385;-70
2022/07/05 12:48:34;;;;;;;0.40;0.30;;;29.60;48.00;;;;;;5010801;28;20396;-70
2022/07/05 12:51:01;;;;;;;0.40;0.20;;;29.40;49.70;;;;;;5012337;28;20411;-70
2022/07/05 12:58:59;;;;;;;0.40;0.20;;;28.90;48.80;;;;;;4979091;28;20431;-69
2022/07/05 13:01:28;;;;;;;0.40;0.30;;;29.30;48.10;;;;;;4980141;28;20809;-69
2022/07/05 13:04:14;;;;;;;0.40;0.20;;;29.50;47.10;;;;;;4976622;28;20390;-69